Aviation Digital Data Service (ADDS)

Output produced by METARs form (0055 UTC 22 September 2017)
found at http://www.aviationweather.gov/adds/metars/
 
UTDD 220030Z VRB01MPS 9999 NSC 16/06 Q1014 R09/D NOSIG RMK QFE692/0923
TAF UTDD 220000Z 2201/2213 VRB02MPS 6000 FEW066 SCT150 
     TEMPO 2201/2207 09005MPS
       
UTAA 220000Z 24005KT 9999 NSC 19/01 Q1012 NOSIG
TAF UTAA 212230Z 2200/2224 VRB04KT 5000 SKC 530009 
     BECMG 2202/2204 32016KT 
     TEMPO 2206/2216 02016KT 
     BECMG 2216/2218 26014KT
       
UTAK 220000Z 06006KT CAVOK 20/01 Q1013 NOSIG
TAF UTAK 212230Z 2200/2224 09016KT CAVOK 530008 
     TEMPO 2200/2205 03016KT 
     TEMPO 2205/2212 16014G24KT
       
UTAM 220000Z 32002KT 6000 SKC 17/05 Q1012 NOSIG
TAF UTAM 212230Z 2200/2224 33016KT CAVOK 530009 
     TEMPO 2200/2204 VRB04KT 5000 SKC 
     TEMPO 2206/2215 30016KT
       
UTAT 220000Z 36010KT CAVOK 14/04 Q1012 NOSIG
TAF UTAT 212230Z 2200/2224 36010KT CAVOK 530005 
     TEMPO 2206/2212 06016KT
       
UTAV 220000Z 34004KT 7000 SKC 15/05 Q1011 NOSIG
TAF UTAV 212230Z 2200/2224 36012KT 5000 SKC 530009 
     TEMPO 2200/2210 30014KT
       
UTDD 220030Z VRB01MPS 9999 NSC 16/06 Q1014 R09/D NOSIG RMK QFE692/0923
TAF UTDD 220000Z 2201/2213 VRB02MPS 6000 FEW066 SCT150 
     TEMPO 2201/2207 09005MPS
       
UTDK 220030Z 02007MPS 9999 NSC 19/04 Q1013 R01/09//70 RMK QFE703/0937
TAF UTDK 220000Z 2201/2210 03005MPS 6000 FEW066 SCT150 
     TEMPO 2201/2210 VRB02MPS
       
UTDL 220030Z 26003MPS 9999 FEW230 16/05 Q1012 88CLRD70 NOSIG RMK QFE721/0962
TAF UTDL 220000Z 2201/2210 24005MPS 9999 NSC 
     TEMPO 2201/2206 VRB03MPS
       
UTDT 220030Z 00000MPS 9999 FEW150 16/10 Q1011 35////// RMK QFE719/0959
TAF UTDT 220000Z 2201/2210 VRB02MPS 6000 FEW066 SCT150 
     TEMPO 2204/2210 20006MPS
       
UTFA 220030Z 07002KT 6000 NSC 14/11 Q1012 R88/09//70
TAF UTFA 220000Z 2201/2210 24010KT 9999 NSC 
     TEMPO 2201/2210 VRB02KT 7000 FEW050CB SCT100
       
UTFF 220030Z 18006KT 9999 NSC 17/07 Q1012 R99/CLRD70
TAF UTFF 220000Z 2201/2210 14010KT 9999 NSC 
     TEMPO 2204/2210 FEW060CB SCT100
       
UTFN 220030Z 32004KT 9999 NSC 17/07 Q1011 R28/CLRD70 NOSIG
TAF UTFN 212300Z 2200/2224 34010KT 9999 NSC 
     TEMPO 2200/2212 14010KT FEW050CB SCT100
       
UTNN 220030Z 31004KT CAVOK 13/04 Q1013 R33/CLRD60 NOSIG
TAF UTNN 212300Z 2200/2224 34012G22KT CAVOK 
     TEMPO 2216/2224 VRB04KT
       
UTNU 220000Z 31004KT 8000 NSC 12/02 Q1011 R31/CLRD70 NOSIG
TAF UTNU 212300Z 2200/2224 02010G20KT 8000 NSC 
     TEMPO 2200/2206 34008KT
       
UTSA 220030Z 11008KT 8000 NSC 15/04 Q1011 R25/CLRD70 NOSIG
TAF UTSA 212301Z 2200/2224 VRB03KT 7000 NSC 
     TEMPO 2204/2212 36012KT
       
UTSB 220030Z 34004KT CAVOK 16/04 Q1010 R01/CLRD70 NOSIG
TAF UTSB 212300Z 2200/2224 VRB03KT 7000 NSC 
     TEMPO 2204/2212 34012KT
       
UTSK 220030Z 08006KT CAVOK 16/04 Q1011 R16/CLRD70
TAF UTSK 212355Z 2201/2210 07010G20KT CAVOK
       
UTSS 220030Z 14008KT 110V170 6000 NSC 17/06 Q1012 R09/70D NOSIG
TAF UTSS 212300Z 2200/2224 12010G20KT 9999 NSC 
     TEMPO 2205/2214 32012G22KT
       
UTST 220030Z 11002KT CAVOK 16/07 Q1011 R88/CLRD70 NOSIG
TAF UTST 212300Z 2200/2224 VRB06KT 6000 NSC 
     TEMPO 2200/2211 26008G18KT
       
UTTT 220030Z 08008KT CAVOK 15/08 Q1012 R08R/CLRD70 NOSIG
TAF UTTT 212300Z 2200/2224 08012KT 7000 NSC
       
UTDL 220030Z 26003MPS 9999 FEW230 16/05 Q1012 88CLRD70 NOSIG RMK QFE721/0962
TAF UTDL 220000Z 2201/2210 24005MPS 9999 NSC 
     TEMPO 2201/2206 VRB03MPS